createdAt,value
2023-02-18T00:00:48.344Z,78.08
2023-02-18T00:01:48.342Z,78.28
2023-02-18T00:02:49.879Z,78.49
2023-02-18T00:03:48.376Z,78.39
2023-02-18T00:04:48.271Z,78.28
2023-02-18T00:05:48.267Z,78.49
2023-02-18T00:06:48.282Z,78.59
2023-02-18T00:07:48.286Z,78.70
2023-02-18T00:08:48.639Z,78.80
2023-02-18T00:09:48.253Z,78.70
2023-02-18T00:10:48.223Z,78.70
2023-02-18T00:11:48.212Z,78.80
2023-02-18T00:12:48.209Z,78.90
2023-02-18T00:13:48.224Z,79.04
2023-02-18T00:14:48.229Z,79.24
2023-02-18T00:15:48.236Z,79.35
2023-02-18T00:16:49.027Z,79.45
2023-02-18T00:17:48.152Z,79.45
2023-02-18T00:18:48.164Z,79.45
2023-02-18T00:19:48.178Z,79.45
2023-02-18T00:20:48.103Z,79.45
2023-02-18T00:21:48.104Z,79.86
2023-02-18T00:22:48.204Z,80.37
2023-02-18T00:23:48.088Z,80.58
2023-02-18T00:24:48.096Z,80.78
2023-02-18T00:25:48.075Z,81.09
2023-02-18T00:26:48.043Z,81.54
2023-02-18T00:27:48.586Z,81.95
2023-02-18T00:28:48.021Z,82.26
2023-02-18T00:29:48.051Z,83.28
2023-02-18T00:30:48.068Z,83.83
2023-02-18T00:31:48.087Z,85.06
2023-02-18T00:32:48.006Z,85.99
2023-02-18T00:33:48.008Z,86.85
2023-02-18T00:34:47.982Z,87.77
2023-02-18T00:35:48.003Z,88.49
2023-02-18T00:36:47.942Z,88.90
2023-02-18T00:37:47.932Z,89.21
2023-02-18T00:38:47.954Z,89.66
2023-02-18T00:39:47.906Z,90.08
2023-02-18T00:40:47.893Z,90.38
2023-02-18T00:41:47.909Z,90.80
2023-02-18T00:42:47.877Z,91.00
2023-02-18T00:43:47.873Z,91.20
2023-02-18T00:44:47.851Z,91.31
2023-02-18T00:45:47.839Z,91.51
2023-02-18T00:46:47.963Z,91.51
2023-02-18T00:47:47.815Z,91.61
2023-02-18T00:48:47.831Z,91.72
2023-02-18T00:49:47.829Z,91.82
2023-02-18T00:50:47.786Z,91.93
2023-02-18T00:51:47.789Z,91.47
2023-02-18T00:52:47.773Z,91.27
2023-02-18T00:53:47.758Z,91.16
2023-02-18T00:54:47.842Z,90.95
2023-02-18T00:55:47.733Z,91.06
2023-02-18T00:56:47.761Z,90.65
2023-02-18T00:57:47.833Z,90.95
2023-02-18T00:58:47.696Z,90.95
2023-02-18T00:59:47.693Z,90.85
2023-02-18T01:00:47.753Z,90.34
2023-02-18T01:01:47.773Z,90.44
2023-02-18T01:02:47.656Z,90.61
2023-02-18T01:03:47.654Z,90.71
2023-02-18T01:04:47.703Z,90.61
2023-02-18T01:05:47.639Z,90.30
2023-02-18T01:06:47.638Z,90.09
2023-02-18T01:07:47.604Z,89.99
2023-02-18T01:08:47.593Z,89.78
2023-02-18T01:09:47.589Z,89.54
2023-02-18T01:10:47.616Z,89.43
2023-02-18T01:11:47.596Z,89.33
2023-02-18T01:12:47.571Z,89.03
2023-02-18T01:13:47.551Z,89.03
2023-02-18T01:14:47.581Z,89.03
2023-02-18T01:15:47.638Z,89.03
2023-02-18T01:16:58.066Z,88.62
2023-02-18T01:17:47.522Z,88.62
2023-02-18T01:18:47.558Z,88.31
2023-02-18T01:19:47.477Z,88.21
2023-02-18T01:20:47.459Z,88.10
2023-02-18T01:21:47.499Z,88.21
2023-02-18T01:22:47.458Z,88.21
2023-02-18T01:23:47.440Z,88.10
2023-02-18T01:24:47.490Z,88.10
2023-02-18T01:25:47.439Z,88.21
2023-02-18T01:26:47.428Z,88.31
2023-02-18T01:27:47.436Z,88.51
2023-02-18T01:28:47.407Z,88.51
2023-02-18T01:29:47.373Z,88.31
2023-02-18T01:30:47.385Z,88.51
2023-02-18T01:31:47.492Z,88.62
2023-02-18T01:32:47.356Z,88.72
2023-02-18T01:33:47.354Z,88.82
2023-02-18T01:34:47.389Z,89.13
2023-02-18T01:35:47.322Z,89.54
2023-02-18T01:36:47.318Z,89.54
2023-02-18T01:37:47.298Z,89.84
2023-02-18T01:38:47.275Z,90.05
2023-02-18T01:39:47.280Z,90.16
2023-02-18T01:40:47.265Z,90.16
2023-02-18T01:41:48.058Z,90.26
2023-02-18T01:42:47.245Z,90.46
2023-02-18T01:43:47.255Z,90.56
2023-02-18T01:44:47.227Z,90.67
2023-02-18T01:45:47.190Z,90.87
2023-02-18T01:46:47.328Z,91.08
2023-02-18T01:47:47.183Z,91.38
2023-02-18T01:48:47.183Z,91.49
2023-02-18T01:49:47.184Z,91.59
2023-02-18T01:50:47.175Z,91.80
2023-02-18T01:51:47.131Z,92.00
2023-02-18T01:52:47.166Z,92.21
2023-02-18T01:53:47.131Z,92.41
2023-02-18T01:54:47.123Z,92.61
2023-02-18T01:55:47.145Z,92.61
2023-02-18T01:56:47.097Z,92.72
2023-02-18T01:57:47.100Z,92.82
2023-02-18T01:58:47.099Z,93.02
2023-02-18T01:59:47.042Z,92.86
2023-02-18T02:00:47.189Z,93.13
2023-02-18T02:01:47.150Z,93.07
2023-02-18T02:02:47.015Z,93.17
2023-02-18T02:03:47.063Z,93.27
2023-02-18T02:04:46.983Z,93.27
2023-02-18T02:05:47.005Z,93.38
2023-02-18T02:06:46.993Z,93.38
2023-02-18T02:07:47.176Z,93.59
2023-02-18T02:08:46.975Z,93.48
2023-02-18T02:09:46.937Z,93.48
2023-02-18T02:10:46.927Z,93.48
2023-02-18T02:11:46.986Z,93.68
2023-02-18T02:12:46.969Z,93.89
2023-02-18T02:13:46.931Z,93.79
2023-02-18T02:14:46.927Z,93.79
2023-02-18T02:15:46.887Z,93.68
2023-02-18T02:16:46.936Z,93.68
2023-02-18T02:17:46.902Z,93.79
2023-02-18T02:18:46.860Z,93.74
2023-02-18T02:19:46.878Z,93.59
2023-02-18T02:20:46.820Z,93.59
2023-02-18T02:21:46.821Z,93.27
2023-02-18T02:22:46.871Z,93.38
2023-02-18T02:23:46.797Z,93.27
2023-02-18T02:24:46.787Z,93.13
2023-02-18T02:25:46.772Z,93.13
2023-02-18T02:26:46.751Z,92.93
2023-02-18T02:27:46.785Z,92.93
2023-02-18T02:28:46.731Z,92.82
2023-02-18T02:29:46.727Z,92.72
2023-02-18T02:30:46.826Z,92.61
2023-02-18T02:31:46.743Z,92.76
2023-02-18T02:32:46.714Z,92.66
2023-02-18T02:33:46.680Z,92.66
2023-02-18T02:34:46.687Z,92.66
2023-02-18T02:35:46.658Z,92.55
2023-02-18T02:36:46.669Z,92.41
2023-02-18T02:37:46.690Z,92.31
2023-02-18T02:38:46.651Z,92.31
2023-02-18T02:39:46.628Z,92.31
2023-02-18T02:40:46.609Z,92.31
2023-02-18T02:41:46.634Z,92.35
2023-02-18T02:42:46.574Z,92.35
2023-02-18T02:43:46.582Z,92.46
2023-02-18T02:44:46.564Z,92.46
2023-02-18T02:45:46.600Z,92.66
2023-02-18T02:46:46.570Z,92.66
2023-02-18T02:47:46.576Z,92.66
2023-02-18T02:48:46.529Z,92.76
2023-02-18T02:49:46.511Z,92.86
2023-02-18T02:50:46.521Z,93.07
2023-02-18T02:51:46.525Z,93.17
2023-02-18T02:52:46.491Z,93.27
2023-02-18T02:53:46.517Z,93.48
2023-02-18T02:54:46.481Z,93.48
2023-02-18T02:55:46.443Z,93.59
2023-02-18T02:56:46.556Z,93.68
2023-02-18T02:57:46.420Z,93.59
2023-02-18T02:58:46.412Z,93.59
2023-02-18T02:59:46.411Z,93.68
2023-02-18T03:00:46.547Z,93.79
2023-02-18T03:01:46.413Z,93.79
2023-02-18T03:02:46.445Z,93.79
2023-02-18T03:03:46.366Z,93.89
2023-02-18T03:04:46.360Z,93.89
2023-02-18T03:05:46.369Z,93.79
2023-02-18T03:06:46.331Z,93.79
2023-02-18T03:07:46.384Z,93.79
2023-02-18T03:08:46.326Z,93.68
2023-02-18T03:09:46.342Z,93.63
2023-02-18T03:10:46.354Z,93.73
2023-02-18T03:11:46.274Z,93.73
2023-02-18T03:12:46.300Z,93.68
2023-02-18T03:13:46.258Z,93.63
2023-02-18T03:14:46.245Z,93.48
2023-02-18T03:15:46.239Z,93.48
2023-02-18T03:16:46.275Z,93.38
2023-02-18T03:17:46.287Z,93.27
2023-02-18T03:18:46.230Z,93.27
2023-02-18T03:19:46.183Z,93.17
2023-02-18T03:20:46.173Z,93.07
2023-02-18T03:21:46.209Z,92.97
2023-02-18T03:22:46.175Z,92.97
2023-02-18T03:23:46.158Z,92.97
2023-02-18T03:24:46.136Z,92.86
2023-02-18T03:25:46.189Z,92.97
2023-02-18T03:26:46.114Z,93.07
2023-02-18T03:27:46.249Z,92.97
2023-02-18T03:28:46.119Z,92.97
2023-02-18T03:29:46.085Z,92.86
2023-02-18T03:30:46.095Z,92.86
2023-02-18T03:31:46.153Z,92.97
2023-02-18T03:32:46.120Z,92.80
2023-02-18T03:33:46.106Z,92.97
2023-02-18T03:34:46.059Z,92.76
2023-02-18T03:35:46.021Z,92.66
2023-02-18T03:36:46.008Z,92.76
2023-02-18T03:37:46.005Z,92.66
2023-02-18T03:38:46.010Z,92.55
2023-02-18T03:39:46.012Z,92.70
2023-02-18T03:40:45.980Z,92.76
2023-02-18T03:41:45.985Z,92.66
2023-02-18T03:42:45.965Z,92.55
2023-02-18T03:43:45.935Z,92.66
2023-02-18T03:44:45.981Z,92.55
2023-02-18T03:45:45.998Z,92.46
2023-02-18T03:46:45.936Z,92.35
2023-02-18T03:47:45.915Z,92.35
2023-02-18T03:48:45.895Z,92.46
2023-02-18T03:49:45.870Z,92.46
2023-02-18T03:50:45.915Z,92.46
2023-02-18T03:51:45.847Z,92.46
2023-02-18T03:52:45.834Z,92.35
2023-02-18T03:53:45.824Z,92.25
2023-02-18T03:54:45.816Z,92.29
2023-02-18T03:55:45.820Z,92.40
2023-02-18T03:56:45.831Z,92.50
2023-02-18T03:57:45.830Z,92.60
2023-02-18T03:58:45.841Z,92.46
2023-02-18T03:59:45.765Z,92.40
2023-02-18T04:00:45.749Z,92.35
2023-02-18T04:01:45.818Z,92.25
2023-02-18T04:02:45.743Z,92.25
2023-02-18T04:03:45.743Z,92.04
2023-02-18T04:04:45.728Z,91.84
2023-02-18T04:05:45.749Z,91.94
2023-02-18T04:06:45.736Z,91.84
2023-02-18T04:07:45.700Z,91.84
2023-02-18T04:08:45.723Z,91.84
2023-02-18T04:09:45.710Z,91.84
2023-02-18T04:10:45.663Z,91.84
2023-02-18T04:11:45.665Z,91.99
2023-02-18T04:12:45.657Z,92.04
2023-02-18T04:13:45.604Z,91.94
2023-02-18T04:14:45.605Z,92.08
2023-02-18T04:15:45.586Z,92.08
2023-02-18T04:16:45.654Z,91.94
2023-02-18T04:17:45.653Z,91.99
2023-02-18T04:18:45.583Z,91.99
2023-02-18T04:19:53.093Z,91.99
2023-02-18T04:20:45.560Z,92.08
2023-02-18T04:21:45.516Z,92.19
2023-02-18T04:22:45.527Z,92.08
2023-02-18T04:23:45.668Z,92.08
2023-02-18T04:24:45.509Z,91.94
2023-02-18T04:25:45.485Z,91.84
2023-02-18T04:26:45.497Z,91.94
2023-02-18T04:27:45.489Z,91.94
2023-02-18T04:28:45.477Z,91.84
2023-02-18T04:29:45.510Z,91.88
2023-02-18T04:30:45.560Z,91.74
2023-02-18T04:31:45.570Z,91.84
2023-02-18T04:32:45.408Z,91.74
2023-02-18T04:33:45.392Z,91.78
2023-02-18T04:34:45.406Z,91.78
2023-02-18T04:35:45.425Z,91.88
2023-02-18T04:36:45.376Z,91.84
2023-02-18T04:37:45.476Z,91.74
2023-02-18T04:38:45.411Z,91.74
2023-02-18T04:39:45.341Z,91.74
2023-02-18T04:40:45.450Z,91.74
2023-02-18T04:41:45.311Z,91.74
2023-02-18T04:42:45.305Z,91.63
2023-02-18T04:43:45.282Z,91.63
2023-02-18T04:44:47.336Z,91.63
2023-02-18T04:45:45.350Z,91.53
2023-02-18T04:46:45.368Z,91.63
2023-02-18T04:47:45.237Z,91.74
2023-02-18T04:48:45.274Z,91.78
2023-02-18T04:49:45.229Z,91.88
2023-02-18T04:50:45.337Z,91.78
2023-02-18T04:51:45.297Z,91.99
2023-02-18T04:52:45.227Z,92.08
2023-02-18T04:53:45.175Z,92.19
2023-02-18T04:54:45.197Z,92.19
2023-02-18T04:55:45.209Z,92.19
2023-02-18T04:56:45.224Z,92.19
2023-02-18T04:57:45.140Z,92.29
2023-02-18T04:58:45.223Z,92.50
2023-02-18T04:59:45.131Z,92.50
2023-02-18T05:00:45.102Z,92.60
2023-02-18T05:01:45.091Z,92.70
2023-02-18T05:02:45.085Z,92.70
2023-02-18T05:03:45.167Z,92.70
2023-02-18T05:04:45.084Z,92.70
2023-02-18T05:05:45.050Z,92.80
2023-02-18T05:06:45.073Z,92.91
2023-02-18T05:07:45.042Z,92.91
2023-02-18T05:08:45.042Z,93.01
2023-02-18T05:09:45.034Z,93.21
2023-02-18T05:10:45.036Z,93.21
2023-02-18T05:11:45.013Z,93.46
2023-02-18T05:12:44.983Z,93.32
2023-02-18T05:13:44.993Z,93.46
2023-02-18T05:14:44.998Z,93.57
2023-02-18T05:15:45.017Z,93.57
2023-02-18T05:16:44.953Z,93.46
2023-02-18T05:17:44.954Z,93.46
2023-02-18T05:18:44.921Z,93.67
2023-02-18T05:19:44.902Z,93.57
2023-02-18T05:20:44.954Z,93.57
2023-02-18T05:21:44.892Z,93.57
2023-02-18T05:22:44.882Z,93.46
2023-02-18T05:23:44.860Z,93.57
2023-02-18T05:24:44.853Z,93.46
2023-02-18T05:25:44.836Z,93.46
2023-02-18T05:26:44.885Z,93.36
2023-02-18T05:27:44.910Z,93.36
2023-02-18T05:28:44.839Z,93.21
2023-02-18T05:29:44.798Z,93.16
2023-02-18T05:30:44.850Z,93.01
2023-02-18T05:31:44.962Z,93.01
2023-02-18T05:32:44.797Z,93.01
2023-02-18T05:33:44.833Z,92.91
2023-02-18T05:34:44.784Z,92.80
2023-02-18T05:35:44.831Z,92.60
2023-02-18T05:36:44.733Z,92.50
2023-02-18T05:37:44.722Z,92.40
2023-02-18T05:38:44.703Z,92.40
2023-02-18T05:39:44.724Z,92.40
2023-02-18T05:40:44.678Z,92.29
2023-02-18T05:41:44.673Z,92.19
2023-02-18T05:42:44.704Z,91.99
2023-02-18T05:43:44.720Z,91.88
2023-02-18T05:44:44.654Z,91.88
2023-02-18T05:45:44.709Z,91.57
2023-02-18T05:46:44.713Z,91.47
2023-02-18T05:47:44.620Z,91.37
2023-02-18T05:48:44.603Z,91.37
2023-02-18T05:49:44.619Z,91.16
2023-02-18T05:50:44.575Z,91.06
2023-02-18T05:51:44.626Z,91.06
2023-02-18T05:52:44.582Z,90.95
2023-02-18T05:53:44.667Z,90.85
2023-02-18T05:54:44.558Z,90.75
2023-02-18T05:55:44.576Z,90.65
2023-02-18T05:56:44.590Z,90.55
2023-02-18T05:57:45.132Z,90.44
2023-02-18T05:58:44.517Z,90.44
2023-02-18T05:59:44.475Z,90.34
2023-02-18T06:00:44.496Z,90.14
2023-02-18T06:01:44.615Z,89.99
2023-02-18T06:02:44.509Z,89.78
2023-02-18T06:03:44.464Z,89.83
2023-02-18T06:04:44.426Z,90.03
2023-02-18T06:05:44.438Z,89.83
2023-02-18T06:06:44.437Z,89.78
2023-02-18T06:07:44.461Z,89.69
2023-02-18T06:08:44.455Z,89.58
2023-02-18T06:09:44.398Z,89.37
2023-02-18T06:10:44.374Z,89.27
2023-02-18T06:11:44.353Z,89.27
2023-02-18T06:12:44.358Z,89.17
2023-02-18T06:13:44.381Z,89.17
2023-02-18T06:14:44.389Z,88.96
2023-02-18T06:15:44.355Z,88.86
2023-02-18T06:16:44.311Z,88.86
2023-02-18T06:17:44.311Z,88.76
2023-02-18T06:18:44.346Z,88.96
2023-02-18T06:19:44.263Z,88.96
2023-02-18T06:20:44.253Z,88.76
2023-02-18T06:21:44.289Z,88.66
2023-02-18T06:22:44.233Z,88.56
2023-02-18T06:23:44.217Z,88.56
2023-02-18T06:24:44.209Z,88.56
2023-02-18T06:25:44.200Z,88.45
2023-02-18T06:26:44.261Z,88.35
2023-02-18T06:27:44.183Z,88.24
2023-02-18T06:28:44.182Z,88.35
2023-02-18T06:29:44.185Z,88.45
2023-02-18T06:30:44.169Z,88.56
2023-02-18T06:31:44.278Z,88.56
2023-02-18T06:32:44.174Z,88.56
2023-02-18T06:33:44.117Z,88.45
2023-02-18T06:34:44.113Z,88.45
2023-02-18T06:35:44.088Z,88.56
2023-02-18T06:36:44.108Z,88.56
2023-02-18T06:37:44.102Z,88.45
2023-02-18T06:38:44.105Z,88.45
2023-02-18T06:39:44.042Z,88.24
2023-02-18T06:40:44.050Z,88.14
2023-02-18T06:41:44.063Z,88.14
2023-02-18T06:42:44.027Z,87.94
2023-02-18T06:43:44.031Z,88.04
2023-02-18T06:44:44.664Z,88.04
2023-02-18T06:45:43.978Z,87.94
2023-02-18T06:46:44.091Z,87.94
2023-02-18T06:47:43.965Z,87.84
2023-02-18T06:48:43.962Z,87.84
2023-02-18T06:49:43.967Z,87.73
2023-02-18T06:50:43.942Z,87.63
2023-02-18T06:51:43.949Z,87.43
2023-02-18T06:52:43.902Z,87.43
2023-02-18T06:53:43.921Z,87.43
2023-02-18T06:54:43.894Z,87.43
2023-02-18T06:55:43.868Z,87.32
2023-02-18T06:56:43.859Z,87.32
2023-02-18T06:57:43.882Z,87.32
2023-02-18T06:58:43.844Z,87.22
2023-02-18T06:59:43.839Z,87.12
2023-02-18T07:00:43.857Z,87.02
2023-02-18T07:01:43.812Z,87.02
2023-02-18T07:02:43.824Z,86.81
2023-02-18T07:03:43.816Z,86.81
2023-02-18T07:04:43.777Z,86.91
2023-02-18T07:05:43.794Z,86.71
2023-02-18T07:06:43.780Z,86.60
2023-02-18T07:07:43.734Z,86.60
2023-02-18T07:08:43.766Z,86.50
2023-02-18T07:09:43.717Z,86.50
2023-02-18T07:10:43.713Z,86.15
2023-02-18T07:11:43.701Z,86.05
2023-02-18T07:12:43.693Z,85.85
2023-02-18T07:13:43.670Z,85.85
2023-02-18T07:14:43.692Z,85.85
2023-02-18T07:15:43.703Z,85.64
2023-02-18T07:16:43.704Z,85.54
2023-02-18T07:17:43.638Z,85.64
2023-02-18T07:18:43.649Z,85.74
2023-02-18T07:19:43.630Z,85.44
2023-02-18T07:20:43.688Z,85.44
2023-02-18T07:21:43.594Z,85.44
2023-02-18T07:22:43.599Z,85.09
2023-02-18T07:23:43.595Z,84.68
2023-02-18T07:24:43.562Z,84.27
2023-02-18T07:25:43.560Z,84.27
2023-02-18T07:26:43.553Z,84.06
2023-02-18T07:27:43.533Z,83.76
2023-02-18T07:28:43.546Z,83.51
2023-02-18T07:29:43.515Z,83.45
2023-02-18T07:30:43.508Z,83.45
2023-02-18T07:31:43.846Z,83.31
2023-02-18T07:32:43.505Z,83.41
2023-02-18T07:33:43.470Z,83.10
2023-02-18T07:34:43.484Z,83.10
2023-02-18T07:35:43.450Z,82.90
2023-02-18T07:36:43.433Z,83.10
2023-02-18T07:37:43.453Z,83.10
2023-02-18T07:38:43.437Z,82.90
2023-02-18T07:39:43.396Z,82.90
2023-02-18T07:40:43.401Z,83.00
2023-02-18T07:41:43.400Z,82.59
2023-02-18T07:42:43.392Z,82.69
2023-02-18T07:43:43.428Z,82.28
2023-02-18T07:44:43.360Z,82.24
2023-02-18T07:45:43.719Z,81.84
2023-02-18T07:46:43.426Z,81.01
2023-02-18T07:47:43.337Z,80.67
2023-02-18T07:48:43.301Z,80.36
2023-02-18T07:49:43.304Z,79.37
2023-02-18T07:50:43.381Z,78.31
2023-02-18T07:51:43.271Z,77.29
2023-02-18T07:52:43.262Z,77.53
2023-02-18T07:53:43.270Z,77.29
2023-02-18T07:54:43.282Z,77.59
2023-02-18T07:55:43.322Z,77.25
2023-02-18T07:56:43.230Z,74.97
2023-02-18T07:57:43.205Z,75.68
2023-02-18T07:58:43.217Z,74.49
2023-02-18T07:59:43.221Z,73.16
2023-02-18T08:00:43.208Z,73.98
2023-02-18T08:01:44.837Z,73.47
2023-02-18T08:02:43.155Z,73.81
2023-02-18T08:03:43.181Z,73.91
2023-02-18T08:04:43.160Z,74.59
2023-02-18T08:05:43.128Z,75.31
2023-02-18T08:06:43.192Z,76.26
2023-02-18T08:07:43.105Z,76.71
2023-02-18T08:08:43.144Z,77.12
2023-02-18T08:09:43.083Z,77.56
2023-02-18T08:10:43.098Z,76.16
2023-02-18T08:11:43.133Z,76.20
2023-02-18T08:12:43.084Z,77.01
2023-02-18T08:13:43.037Z,75.58
2023-02-18T08:14:43.021Z,74.76
2023-02-18T08:15:43.017Z,74.35
2023-02-18T08:16:43.042Z,74.05
2023-02-18T08:17:43.001Z,74.15
2023-02-18T08:18:42.994Z,74.46
2023-02-18T08:19:42.971Z,74.25
2023-02-18T08:20:42.993Z,72.00
2023-02-18T08:21:42.961Z,72.38
2023-02-18T08:22:42.966Z,70.68
2023-02-18T08:23:42.961Z,70.14
2023-02-18T08:24:42.938Z,71.46
2023-02-18T08:25:43.046Z,73.13
2023-02-18T08:26:59.204Z,69.83
2023-02-18T08:27:43.895Z,69.59
2023-02-18T08:28:42.874Z,69.80
2023-02-18T08:29:42.866Z,68.65
2023-02-18T08:30:43.028Z,69.73
2023-02-18T08:31:44.748Z,69.83
2023-02-18T08:32:42.835Z,69.70
2023-02-18T08:33:42.843Z,68.68
2023-02-18T08:34:42.892Z,70.00
2023-02-18T08:35:42.856Z,67.90
2023-02-18T08:36:42.819Z,68.27
2023-02-18T08:37:52.656Z,68.51
2023-02-18T08:38:43.792Z,66.68
2023-02-18T08:39:42.782Z,67.08
2023-02-18T08:40:42.809Z,68.17
2023-02-18T08:41:42.763Z,69.76
2023-02-18T08:42:42.810Z,67.73
2023-02-18T08:43:42.723Z,66.58
2023-02-18T08:44:42.701Z,68.34
2023-02-18T08:45:42.803Z,68.98
2023-02-18T08:46:42.801Z,68.48
2023-02-18T08:48:15.883Z,68.24
2023-02-18T08:48:43.662Z,67.05
2023-02-18T08:49:42.655Z,68.07
2023-02-18T08:50:42.643Z,67.63
2023-02-18T08:51:42.653Z,67.83
2023-02-18T08:52:42.612Z,67.66
2023-02-18T08:53:42.608Z,69.22
2023-02-18T08:54:42.636Z,69.29
2023-02-18T08:55:42.644Z,68.57
2023-02-18T08:56:42.596Z,69.15
2023-02-18T08:57:42.561Z,68.95
2023-02-18T08:58:42.596Z,69.96
2023-02-18T08:59:42.543Z,70.72
2023-02-18T09:00:42.569Z,71.09
2023-02-18T09:01:42.668Z,68.07
2023-02-18T09:02:42.510Z,65.97
2023-02-18T09:03:42.524Z,66.47
2023-02-18T09:04:42.484Z,65.33
2023-02-18T09:05:42.481Z,68.04
2023-02-18T09:06:42.582Z,65.97
2023-02-18T09:07:42.496Z,65.39
2023-02-18T09:08:42.447Z,64.87
2023-02-18T09:09:42.471Z,63.24
2023-02-18T09:10:43.582Z,60.98
2023-02-18T09:11:42.410Z,60.75
2023-02-18T09:12:42.413Z,62.79
2023-02-18T09:13:42.415Z,64.45
2023-02-18T09:14:42.372Z,63.20
2023-02-18T09:15:42.401Z,63.74
2023-02-18T09:16:47.254Z,62.71
2023-02-18T09:17:42.351Z,60.28
2023-02-18T09:18:42.374Z,58.18
2023-02-18T09:19:42.332Z,58.92
2023-02-18T09:20:50.110Z,59.81
2023-02-18T09:21:42.294Z,59.38
2023-02-18T09:22:42.285Z,57.73
2023-02-18T09:23:42.318Z,58.23
2023-02-18T09:24:42.261Z,56.69
2023-02-18T09:25:42.253Z,57.42
2023-02-18T09:26:42.268Z,56.89
2023-02-18T09:27:42.235Z,57.65
2023-02-18T09:28:42.242Z,54.91
2023-02-18T09:29:42.267Z,56.59
2023-02-18T09:30:42.360Z,58.36
2023-02-18T09:31:42.308Z,58.13
2023-02-18T09:32:42.217Z,61.21
2023-02-18T09:33:43.272Z,62.13
2023-02-18T09:34:42.219Z,60.27
2023-02-18T09:35:42.195Z,57.53
2023-02-18T09:36:42.130Z,56.71
2023-02-18T09:37:42.136Z,58.62
2023-02-18T09:38:42.149Z,59.00
2023-02-18T09:39:42.104Z,61.04
2023-02-18T09:40:42.124Z,62.49
2023-02-18T09:41:42.721Z,60.81
2023-02-18T09:42:42.093Z,61.32
2023-02-18T09:43:42.102Z,61.41
2023-02-18T09:44:42.070Z,59.27
2023-02-18T09:45:42.066Z,58.74
2023-02-18T09:46:42.051Z,57.45
2023-02-18T09:47:42.057Z,58.16
2023-02-18T09:48:42.057Z,58.42
2023-02-18T09:49:41.991Z,61.17
2023-02-18T09:50:41.978Z,62.49
2023-02-18T09:51:41.976Z,62.62
2023-02-18T09:52:41.963Z,62.26
2023-02-18T09:53:41.986Z,60.91
2023-02-18T09:54:41.938Z,62.26
2023-02-18T09:55:41.949Z,63.90
2023-02-18T09:56:42.083Z,65.16
2023-02-18T09:57:41.925Z,64.69
2023-02-18T09:58:41.921Z,61.37
2023-02-18T09:59:41.896Z,64.95
2023-02-18T10:00:41.912Z,65.89
2023-02-18T10:01:41.973Z,66.88
2023-02-18T10:02:41.903Z,65.02
2023-02-18T10:03:42.732Z,64.69
2023-02-18T10:04:41.850Z,63.33
2023-02-18T10:05:41.862Z,62.18
2023-02-18T10:06:41.825Z,58.16
2023-02-18T10:07:41.820Z,55.82
2023-02-18T10:08:41.805Z,53.85
2023-02-18T10:09:42.262Z,55.88
2023-02-18T10:10:41.783Z,56.76
2023-02-18T10:11:41.775Z,56.74
2023-02-18T10:12:41.816Z,59.97
2023-02-18T10:13:41.757Z,59.86
2023-02-18T10:14:41.750Z,59.56
2023-02-18T10:15:41.852Z,59.86
2023-02-18T10:16:41.733Z,58.72
2023-02-18T10:17:41.690Z,59.89
2023-02-18T10:18:41.707Z,59.86
2023-02-18T10:19:41.756Z,60.10
2023-02-18T10:20:41.731Z,60.43
2023-02-18T10:21:41.671Z,60.60
2023-02-18T10:22:41.673Z,60.04
2023-02-18T10:23:41.645Z,58.49
2023-02-18T10:24:41.639Z,58.65
2023-02-18T10:25:41.621Z,60.10
2023-02-18T10:26:41.591Z,59.12
2023-02-18T10:27:41.644Z,56.59
2023-02-18T10:28:41.580Z,55.42
2023-02-18T10:29:41.565Z,54.38
2023-02-18T10:30:41.592Z,51.76
2023-02-18T10:31:41.695Z,54.71
2023-02-18T10:32:41.553Z,56.23
2023-02-18T10:33:41.552Z,52.11
2023-02-18T10:34:41.542Z,54.33
2023-02-18T10:35:41.513Z,56.08
2023-02-18T10:36:41.503Z,54.71
2023-02-18T10:37:41.537Z,55.17
2023-02-18T10:38:41.524Z,55.90
2023-02-18T10:39:41.603Z,56.87
2023-02-18T10:40:41.475Z,59.05
2023-02-18T10:41:41.442Z,57.98
2023-02-18T10:42:41.454Z,57.53
2023-02-18T10:43:41.414Z,56.77
2023-02-18T10:44:41.447Z,55.47
2023-02-18T10:45:41.416Z,55.37
2023-02-18T10:46:46.375Z,53.47
2023-02-18T10:47:41.376Z,53.98
2023-02-18T10:48:41.389Z,56.21
2023-02-18T10:49:41.438Z,54.82
2023-02-18T10:50:41.362Z,55.37
2023-02-18T10:51:41.343Z,53.78
2023-02-18T10:52:41.339Z,55.02
2023-02-18T10:53:41.322Z,53.14
2023-02-18T10:54:41.341Z,52.19
2023-02-18T10:55:41.326Z,51.53
2023-02-18T10:56:41.341Z,54.00
2023-02-18T10:57:41.284Z,52.44
2023-02-18T10:58:41.250Z,50.65
2023-02-18T10:59:41.250Z,50.85
2023-02-18T11:00:41.242Z,50.45
2023-02-18T11:01:41.461Z,50.15
2023-02-18T11:02:41.232Z,48.46
2023-02-18T11:03:41.204Z,50.29
2023-02-18T11:04:41.266Z,51.30
2023-02-18T11:05:41.203Z,51.76
2023-02-18T11:06:41.200Z,51.93
2023-02-18T11:07:41.164Z,50.49
2023-02-18T11:08:41.188Z,50.22
2023-02-18T11:09:41.178Z,49.33
2023-02-18T11:10:41.130Z,50.52
2023-02-18T11:11:41.790Z,47.41
2023-02-18T11:12:41.201Z,49.52
2023-02-18T11:13:41.169Z,48.91
2023-02-18T11:14:41.112Z,49.52
2023-02-18T11:15:41.086Z,49.11
2023-02-18T11:16:41.210Z,48.46
2023-02-18T11:17:41.221Z,50.52
2023-02-18T11:18:41.118Z,51.00
2023-02-18T11:19:41.071Z,51.00
2023-02-18T11:20:41.037Z,53.09
2023-02-18T11:21:41.074Z,51.30
2023-02-18T11:22:41.036Z,51.20
2023-02-18T11:23:41.017Z,49.92
2023-02-18T11:24:41.026Z,48.91
2023-02-18T11:25:40.987Z,50.59
2023-02-18T11:26:40.983Z,50.04
2023-02-18T11:27:40.976Z,50.70
2023-02-18T11:28:40.943Z,52.31
2023-02-18T11:29:40.942Z,48.96
2023-02-18T11:30:41.049Z,48.24
2023-02-18T11:31:41.023Z,48.14
2023-02-18T11:32:40.928Z,47.96
2023-02-18T11:33:40.910Z,50.95
2023-02-18T11:34:40.942Z,50.35
2023-02-18T11:35:40.883Z,51.93
2023-02-18T11:36:40.972Z,53.78
2023-02-18T11:37:40.868Z,52.74
2023-02-18T11:38:40.960Z,51.48
2023-02-18T11:39:40.841Z,51.61
2023-02-18T11:40:40.821Z,53.19
2023-02-18T11:41:40.890Z,52.89
2023-02-18T11:42:40.879Z,54.56
2023-02-18T11:43:40.791Z,54.64
2023-02-18T11:44:40.782Z,54.56
2023-02-18T11:45:40.809Z,56.36
2023-02-18T11:46:40.827Z,56.26
2023-02-18T11:47:40.784Z,56.61
2023-02-18T11:48:40.779Z,56.64
2023-02-18T11:49:40.757Z,55.93
2023-02-18T11:50:40.764Z,54.97
2023-02-18T11:51:40.749Z,54.38
2023-02-18T11:52:40.700Z,55.93
2023-02-18T11:53:40.716Z,54.26
2023-02-18T11:54:40.682Z,56.29
2023-02-18T11:55:40.662Z,58.27
2023-02-18T11:56:40.658Z,58.47
2023-02-18T11:57:40.716Z,58.58
2023-02-18T11:58:40.655Z,57.84
2023-02-18T11:59:40.633Z,58.31
2023-02-18T12:00:40.640Z,56.95
2023-02-18T12:01:40.675Z,56.26
2023-02-18T12:02:40.598Z,56.79
2023-02-18T12:03:40.622Z,57.17
2023-02-18T12:04:40.578Z,56.59
2023-02-18T12:05:40.621Z,57.43
2023-02-18T12:06:40.653Z,59.14
2023-02-18T12:07:40.579Z,59.92
2023-02-18T12:08:40.546Z,58.98
2023-02-18T12:09:40.557Z,58.58
2023-02-18T12:10:40.508Z,59.41
2023-02-18T12:11:40.503Z,58.88
2023-02-18T12:12:40.529Z,60.15
2023-02-18T12:13:40.473Z,60.25
2023-02-18T12:14:40.467Z,60.74
2023-02-18T12:15:40.453Z,60.02
2023-02-18T12:16:40.474Z,59.82
2023-02-18T12:17:40.473Z,60.86
2023-02-18T12:18:42.670Z,60.66
2023-02-18T12:19:40.412Z,61.60
2023-02-18T12:20:40.410Z,61.27
2023-02-18T12:21:40.385Z,61.68
2023-02-18T12:22:40.400Z,61.81
2023-02-18T12:23:40.377Z,62.01
2023-02-18T12:24:40.401Z,61.91
2023-02-18T12:25:40.390Z,62.21
2023-02-18T12:26:40.336Z,61.65
2023-02-18T12:27:40.324Z,60.63
2023-02-18T12:28:40.347Z,60.63
2023-02-18T12:29:40.332Z,60.43
2023-02-18T12:30:40.311Z,59.36
2023-02-18T12:31:40.399Z,58.01
2023-02-18T12:32:40.308Z,56.84
2023-02-18T12:33:40.277Z,57.50
2023-02-18T12:34:40.251Z,56.77
2023-02-18T12:35:40.232Z,56.67
2023-02-18T12:36:40.248Z,58.14
2023-02-18T12:37:40.271Z,59.92
2023-02-18T12:38:40.266Z,59.28
2023-02-18T12:39:40.198Z,59.05
2023-02-18T12:40:40.195Z,58.78
2023-02-18T12:41:40.318Z,59.89
2023-02-18T12:42:40.167Z,58.85
2023-02-18T12:43:40.160Z,59.08
2023-02-18T12:44:40.155Z,58.65
2023-02-18T12:45:40.176Z,58.11
2023-02-18T12:46:40.169Z,57.58
2023-02-18T12:47:40.186Z,56.41
2023-02-18T12:48:40.122Z,55.80
2023-02-18T12:49:40.095Z,56.13
2023-02-18T12:50:40.097Z,57.78
2023-02-18T12:51:40.204Z,57.24
2023-02-18T12:52:40.134Z,56.57